Time;durP1;ratioP1;P1;durP2;ratioP2;P2;SDS_P1;SDS_P2;PMS_P1;PMS_P2;Temp;Humidity;BMP_temperature;BMP_pressure;BME280_temperature;BME280_humidity;BME280_pressure;Samples;Min_cycle;Max_cycle;Signal;HPM_P1;HPM_P2
2023/06/05 00:01:05;;;;;;;14.93;9.13;;;;;;;;;;5045405;28;20041;-90
2023/06/05 00:03:34;;;;;;;13.25;8.32;;;;;;;;;;5040515;28;20052;-92
2023/06/05 00:06:21;;;;;;;10.80;7.97;;;;;;;;;;5037518;28;20045;-91
2023/06/05 00:08:47;;;;;;;13.50;8.25;;;;;;;;;;5040936;28;20064;-91
2023/06/05 00:11:13;;;;;;;13.77;8.80;;;;;;;;;;5040626;28;20041;-90
2023/06/05 00:13:39;;;;;;;13.48;8.55;;;;;;;;;;5041561;28;20049;-88
2023/06/05 00:16:08;;;;;;;16.20;8.43;;;;;;;;;;5038928;28;20071;-90
2023/06/05 00:18:37;;;;;;;;;;;;;;;;;;5040341;28;20050;-88
2023/06/05 00:21:05;;;;;;;11.48;7.95;;;;;;;;;;5039909;28;19954;-89
2023/06/05 00:23:31;;;;;;;13.73;8.82;;;;;;;;;;5037870;28;20037;-88
2023/06/05 00:25:58;;;;;;;13.43;8.57;;;;;;;;;;5049653;28;20021;-87
2023/06/05 00:28:24;;;;;;;12.52;8.60;;;;;;;;;;5046929;28;20124;-91
2023/06/05 00:30:51;;;;;;;11.38;8.85;;;;;;;;;;5044021;28;20041;-91
2023/06/05 00:33:17;;;;;;;12.93;9.43;;;;;;;;;;5025325;28;20069;-91
2023/06/05 00:35:43;;;;;;;11.68;8.75;;;;;;;;;;5015795;28;20137;-91
2023/06/05 00:38:10;;;;;;;12.82;8.68;;;;;;;;;;5032561;28;20050;-91
2023/06/05 00:40:46;;;;;;;18.67;8.55;;;;;;;;;;5031652;28;20053;-92
2023/06/05 00:43:15;;;;;;;13.55;8.50;;;;;;;;;;5052535;28;20385;-91
2023/06/05 00:45:41;;;;;;;13.52;9.07;;;;;;;;;;5052805;28;20045;-91
2023/06/05 00:48:17;;;;;;;12.52;8.45;;;;;;;;;;5053183;28;20049;-90
2023/06/05 00:50:43;;;;;;;14.60;9.48;;;;;;;;;;5052401;28;20045;-90
2023/06/05 00:53:12;;;;;;;16.33;9.95;;;;;;;;;;5054017;28;20052;-91
2023/06/05 00:55:41;;;;;;;18.63;10.52;;;;;;;;;;5052920;28;20063;-91
2023/06/05 00:58:07;;;;;;;14.23;9.45;;;;;;;;;;5051807;28;20072;-92
2023/06/05 01:00:34;;;;;;;14.70;10.23;;;;;;;;;;5052124;28;20492;-92
2023/06/05 01:03:01;;;;;;;15.43;10.00;;;;;;;;;;5033945;28;20125;-91
2023/06/05 01:05:30;;;;;;;18.20;10.68;;;;;;;;;;5044911;28;20044;-91
2023/06/05 01:07:56;;;;;;;16.38;10.00;;;;;;;;;;5042565;28;20038;-91
2023/06/05 01:10:22;;;;;;;16.00;10.93;;;;;;;;;;5043170;28;20092;-88
2023/06/05 01:13:16;;;;;;;15.82;10.85;;;;;;;;;;5044982;28;20038;-90
2023/06/05 01:15:42;;;;;;;15.23;10.82;;;;;;;;;;5041183;28;20049;-90
2023/06/05 01:18:09;;;;;;;18.90;10.90;;;;;;;;;;5045146;28;20077;-88
2023/06/05 01:20:36;;;;;;;17.55;11.43;;;;;;;;;;5045475;28;20037;-92
2023/06/05 01:23:03;;;;;;;15.57;10.50;;;;;;;;;;5045204;28;20055;-89
2023/06/05 01:25:50;;;;;;;16.05;11.25;;;;;;;;;;5043254;28;20110;-90
2023/06/05 01:28:24;;;;;;;19.35;11.35;;;;;;;;;;5039505;28;20068;-90
2023/06/05 01:31:02;;;;;;;18.65;12.27;;;;;;;;;;5040805;28;20175;-91
2023/06/05 01:33:51;;;;;;;;;;;;;;;;;;;;;
2023/06/05 01:36:21;;;;;;;19.02;12.35;;;;;;;;;;5040242;28;20068;-91
2023/06/05 01:38:48;;;;;;;17.20;11.90;;;;;;;;;;5054304;28;20030;-85
2023/06/05 01:41:15;;;;;;;17.00;11.35;;;;;;;;;;5060098;28;20072;-87
2023/06/05 01:43:42;;;;;;;17.48;11.27;;;;;;;;;;5061173;28;20030;-90
2023/06/05 01:46:08;;;;;;;18.05;12.05;;;;;;;;;;5060816;28;20030;-88
2023/06/05 01:48:42;;;;;;;17.85;11.45;;;;;;;;;;5041482;28;20042;-91
2023/06/05 01:51:11;;;;;;;18.67;11.27;;;;;;;;;;5033439;28;20488;-92
2023/06/05 01:53:37;;;;;;;19.48;11.55;;;;;;;;;;5051342;28;20046;-92
2023/06/05 01:56:06;;;;;;;17.00;11.65;;;;;;;;;;5048769;28;20046;-92
2023/06/05 01:58:35;;;;;;;16.95;11.88;;;;;;;;;;5048691;28;20049;-92
2023/06/05 02:01:02;;;;;;;17.95;12.05;;;;;;;;;;5038836;28;20041;-91
2023/06/05 02:03:28;;;;;;;18.08;11.63;;;;;;;;;;5048460;28;20107;-91
2023/06/05 02:05:54;;;;;;;19.42;12.18;;;;;;;;;;5021477;28;20050;-91
2023/06/05 02:08:24;;;;;;;17.13;11.93;;;;;;;;;;5018625;28;20073;-91
2023/06/05 02:10:54;;;;;;;20.50;12.32;;;;;;;;;;5048512;28;20403;-91
2023/06/05 02:13:22;;;;;;;19.20;11.02;;;;;;;;;;5014748;28;20107;-92
2023/06/05 02:15:50;;;;;;;16.80;10.65;;;;;;;;;;5048206;28;20050;-91
2023/06/05 02:18:25;;;;;;;17.23;11.63;;;;;;;;;;5032455;28;20052;-90
2023/06/05 02:20:51;;;;;;;;;;;;;;;;;;5049619;28;20045;-90
2023/06/05 02:23:17;;;;;;;15.20;10.85;;;;;;;;;;5047497;28;19921;-91
2023/06/05 02:25:43;;;;;;;15.25;10.63;;;;;;;;;;5047637;28;20071;-92
2023/06/05 02:28:09;;;;;;;17.55;10.30;;;;;;;;;;5047622;28;20041;-91
2023/06/05 02:30:37;;;;;;;14.95;10.15;;;;;;;;;;5041841;28;20054;-91
2023/06/05 02:33:03;;;;;;;14.45;10.18;;;;;;;;;;5043571;28;20471;-92
2023/06/05 02:35:30;;;;;;;17.35;10.90;;;;;;;;;;5029985;28;20057;-91
2023/06/05 02:37:58;;;;;;;18.05;10.43;;;;;;;;;;5013182;28;20064;-91
2023/06/05 02:40:24;;;;;;;17.00;10.57;;;;;;;;;;5044461;28;20045;-90
2023/06/05 02:42:50;;;;;;;23.33;10.30;;;;;;;;;;5038364;28;20072;-91
2023/06/05 02:45:19;;;;;;;15.65;10.25;;;;;;;;;;5025069;28;20057;-90
2023/06/05 02:47:45;;;;;;;18.45;9.90;;;;;;;;;;5042828;28;20045;-91
2023/06/05 02:50:15;;;;;;;15.82;9.90;;;;;;;;;;5032979;28;20048;-92
2023/06/05 02:52:41;;;;;;;17.30;9.80;;;;;;;;;;5047730;28;20038;-92
2023/06/05 02:55:07;;;;;;;15.18;10.07;;;;;;;;;;5056535;28;20049;-88
2023/06/05 02:57:40;;;;;;;16.55;10.65;;;;;;;;;;5058063;28;20025;-91
2023/06/05 03:00:08;;;;;;;15.95;10.40;;;;;;;;;;5036125;28;20042;-92
2023/06/05 03:02:36;;;;;;;18.08;10.40;;;;;;;;;;5037193;28;20042;-92
2023/06/05 03:05:03;;;;;;;15.18;10.18;;;;;;;;;;5033819;28;20060;-92
2023/06/05 03:07:29;;;;;;;15.38;10.35;;;;;;;;;;5043003;28;20059;-92
2023/06/05 03:09:55;;;;;;;15.85;9.85;;;;;;;;;;5046175;28;20102;-92
2023/06/05 03:12:22;;;;;;;14.15;9.93;;;;;;;;;;5046253;28;20044;-92
2023/06/05 03:14:48;;;;;;;15.52;10.15;;;;;;;;;;5020089;28;20132;-91
2023/06/05 03:17:14;;;;;;;16.60;9.88;;;;;;;;;;5034489;28;20041;-91
2023/06/05 03:19:40;;;;;;;14.65;10.05;;;;;;;;;;5017608;28;20049;-91
2023/06/05 03:22:07;;;;;;;15.73;9.95;;;;;;;;;;5010834;28;20101;-89
2023/06/05 03:24:37;;;;;;;15.90;10.10;;;;;;;;;;5005326;28;20057;-89
2023/06/05 03:27:04;;;;;;;14.55;8.85;;;;;;;;;;5036064;28;20077;-91
2023/06/05 03:29:30;;;;;;;16.27;9.10;;;;;;;;;;5040828;28;20049;-91
2023/06/05 03:31:56;;;;;;;14.63;9.02;;;;;;;;;;5020282;28;20101;-90
2023/06/05 03:34:25;;;;;;;12.23;7.60;;;;;;;;;;5040279;28;20396;-89
2023/06/05 03:36:52;;;;;;;16.40;8.82;;;;;;;;;;5038559;28;20049;-90
2023/06/05 03:39:18;;;;;;;14.13;8.82;;;;;;;;;;5047723;28;20140;-91
2023/06/05 03:41:44;;;;;;;14.43;8.75;;;;;;;;;;5048115;28;20092;-93
2023/06/05 03:44:12;;;;;;;14.85;8.90;;;;;;;;;;5029289;28;20056;-92
2023/06/05 03:46:38;;;;;;;13.23;8.98;;;;;;;;;;5060106;28;20045;-92
2023/06/05 03:49:08;;;;;;;18.95;10.07;;;;;;;;;;5046636;28;20042;-92
2023/06/05 03:51:37;;;;;;;17.35;9.40;;;;;;;;;;5029645;28;20045;-92
2023/06/05 03:54:08;;;;;;;16.55;9.43;;;;;;;;;;5028594;28;20045;-92
2023/06/05 03:56:42;;;;;;;15.38;8.73;;;;;;;;;;5047101;28;20052;-92
2023/06/05 03:59:16;;;;;;;;;;;;;;;;;;5030108;28;20053;-92
2023/06/05 04:01:42;;;;;;;15.73;9.52;;;;;;;;;;5029214;28;19964;-91
2023/06/05 04:04:11;;;;;;;13.68;9.70;;;;;;;;;;5044528;28;20080;-92
2023/06/05 04:06:39;;;;;;;16.48;10.40;;;;;;;;;;5019706;28;20505;-92
2023/06/05 04:09:10;;;;;;;14.98;9.60;;;;;;;;;;5043559;28;20060;-87
2023/06/05 04:11:38;;;;;;;13.15;9.57;;;;;;;;;;5030471;28;20036;-87
2023/06/05 04:14:08;;;;;;;12.90;9.32;;;;;;;;;;5004044;28;20195;-91
2023/06/05 04:16:38;;;;;;;14.55;8.70;;;;;;;;;;5027851;28;20101;-92
2023/06/05 04:19:06;;;;;;;15.48;9.93;;;;;;;;;;5040699;28;20129;-91
2023/06/05 04:21:37;;;;;;;13.98;8.98;;;;;;;;;;5043701;28;20061;-92
2023/06/05 04:24:09;;;;;;;12.18;7.93;;;;;;;;;;5024976;28;20084;-92
2023/06/05 04:26:36;;;;;;;12.35;8.52;;;;;;;;;;5007006;28;20049;-87
2023/06/05 04:29:26;;;;;;;15.75;8.02;;;;;;;;;;5039404;28;20102;-91
2023/06/05 04:31:53;;;;;;;16.90;7.72;;;;;;;;;;5030460;28;20072;-91
2023/06/05 04:34:25;;;;;;;10.63;7.55;;;;;;;;;;5016836;28;20064;-88
2023/06/05 04:36:51;;;;;;;13.73;7.43;;;;;;;;;;5035925;28;20614;-92
2023/06/05 04:39:21;;;;;;;13.15;7.15;;;;;;;;;;5031928;28;20049;-89
2023/06/05 04:41:58;;;;;;;11.90;7.47;;;;;;;;;;5034089;28;20044;-91
2023/06/05 04:44:25;;;;;;;9.52;6.63;;;;;;;;;;5019032;28;20038;-89
2023/06/05 04:46:58;;;;;;;12.27;7.20;;;;;;;;;;5030999;28;20072;-90
2023/06/05 04:49:27;;;;;;;12.13;7.53;;;;;;;;;;5036570;28;20045;-88
2023/06/05 04:51:56;;;;;;;12.27;7.50;;;;;;;;;;5036344;28;20037;-89
2023/06/05 04:54:28;;;;;;;10.23;7.45;;;;;;;;;;5034751;28;20041;-90
2023/06/05 04:56:59;;;;;;;9.77;6.90;;;;;;;;;;5031394;28;20056;-90
2023/06/05 04:59:35;;;;;;;11.85;7.68;;;;;;;;;;5036117;28;20096;-91
2023/06/05 05:02:01;;;;;;;12.45;7.47;;;;;;;;;;5016861;28;20099;-92
2023/06/05 05:04:30;;;;;;;13.73;7.55;;;;;;;;;;5041882;28;20052;-91
2023/06/05 05:07:14;;;;;;;13.13;7.57;;;;;;;;;;5039547;28;20037;-91
2023/06/05 05:10:00;;;;;;;11.80;7.22;;;;;;;;;;5035913;28;20395;-90
2023/06/05 05:12:29;;;;;;;10.27;6.80;;;;;;;;;;5037783;28;20091;-91
2023/06/05 05:14:58;;;;;;;13.68;7.57;;;;;;;;;;5036262;28;20053;-91
2023/06/05 05:17:28;;;;;;;12.98;7.70;;;;;;;;;;5040446;28;20038;-92
2023/06/05 05:19:58;;;;;;;10.30;7.70;;;;;;;;;;5038461;28;20033;-90
2023/06/05 05:22:27;;;;;;;11.65;7.70;;;;;;;;;;5040210;28;20080;-88
2023/06/05 05:24:53;;;;;;;11.40;7.22;;;;;;;;;;5041911;28;20075;-89
2023/06/05 05:27:19;;;;;;;12.70;7.82;;;;;;;;;;5053102;28;20042;-89
2023/06/05 05:29:46;;;;;;;10.25;7.00;;;;;;;;;;5047287;28;20049;-90
2023/06/05 05:32:12;;;;;;;13.65;7.63;;;;;;;;;;5046456;28;20048;-89
2023/06/05 05:34:38;;;;;;;12.02;7.20;;;;;;;;;;5047971;28;20057;-91
2023/06/05 05:37:04;;;;;;;10.60;6.53;;;;;;;;;;5045114;28;20041;-92
2023/06/05 05:39:33;;;;;;;12.45;6.20;;;;;;;;;;5020839;28;20045;-90
2023/06/05 05:42:03;;;;;;;10.68;6.45;;;;;;;;;;5051087;28;20207;-91
2023/06/05 05:44:45;;;;;;;;;;;;;;;;;;;;;
2023/06/05 05:47:19;;;;;;;8.68;5.80;;;;;;;;;;5043469;28;20060;-92
2023/06/05 05:49:50;;;;;;;8.07;5.38;;;;;;;;;;5012444;28;20041;-91
2023/06/05 05:52:26;;;;;;;;;;;;;;;;;;;;;
2023/06/05 05:55:03;;;;;;;8.40;5.10;;;;;;;;;;5029500;28;20104;-91
2023/06/05 05:58:06;;;;;;;10.82;5.50;;;;;;;;;;5043514;28;20045;-91
2023/06/05 06:00:40;;;;;;;8.30;5.20;;;;;;;;;;5015355;28;20053;-91
2023/06/05 06:03:11;;;;;;;9.18;5.35;;;;;;;;;;5029753;28;20049;-91
2023/06/05 06:05:44;;;;;;;7.85;5.60;;;;;;;;;;5011573;28;20042;-90
2023/06/05 06:08:22;;;;;;;8.43;5.28;;;;;;;;;;5030156;28;20045;-90
2023/06/05 06:10:50;;;;;;;8.90;5.13;;;;;;;;;;5010380;28;20075;-91
2023/06/05 06:13:19;;;;;;;7.57;5.30;;;;;;;;;;5042552;28;20045;-90
2023/06/05 06:15:45;;;;;;;8.13;5.07;;;;;;;;;;5028049;28;20081;-89
2023/06/05 06:18:19;;;;;;;7.20;4.88;;;;;;;;;;5034681;28;20042;-91
2023/06/05 06:20:50;;;;;;;8.90;4.72;;;;;;;;;;5028299;28;20522;-91
2023/06/05 06:23:16;;;;;;;7.85;4.60;;;;;;;;;;5043559;28;20042;-90
2023/06/05 06:25:59;;;;;;;8.45;5.20;;;;;;;;;;5025314;28;20125;-91
2023/06/05 06:28:25;;;;;;;7.55;5.13;;;;;;;;;;5031676;28;20037;-89
2023/06/05 06:30:51;;;;;;;7.95;4.55;;;;;;;;;;5038510;28;20050;-88
2023/06/05 06:33:17;;;;;;;9.30;4.47;;;;;;;;;;5035237;28;20105;-91
2023/06/05 06:35:43;;;;;;;9.05;4.28;;;;;;;;;;5038350;28;20041;-90
2023/06/05 06:38:12;;;;;;;7.45;4.13;;;;;;;;;;5046515;28;20079;-90
2023/06/05 06:40:38;;;;;;;7.05;4.45;;;;;;;;;;5031993;28;20073;-90
2023/06/05 06:43:07;;;;;;;6.82;4.45;;;;;;;;;;5051939;28;20045;-90
2023/06/05 06:45:33;;;;;;;7.45;4.10;;;;;;;;;;5024878;28;20132;-91
2023/06/05 06:47:59;;;;;;;7.18;4.13;;;;;;;;;;5046770;28;20073;-89
2023/06/05 06:50:26;;;;;;;8.93;4.20;;;;;;;;;;5036169;28;20182;-89
2023/06/05 06:52:52;;;;;;;7.38;4.15;;;;;;;;;;5027435;28;20112;-91
2023/06/05 06:55:20;;;;;;;7.35;4.43;;;;;;;;;;5046280;28;20046;-90
2023/06/05 06:57:56;;;;;;;7.30;4.30;;;;;;;;;;5045625;28;20041;-90
2023/06/05 07:00:27;;;;;;;7.18;4.22;;;;;;;;;;5045206;28;20043;-89
2023/06/05 07:02:53;;;;;;;6.10;4.10;;;;;;;;;;5046895;28;20099;-89
2023/06/05 07:05:20;;;;;;;7.70;3.80;;;;;;;;;;5045516;28;20038;-90
2023/06/05 07:10:56;;;;;;;7.78;4.18;;;;;;;;;;5034023;28;20487;-91
2023/06/05 07:13:25;;;;;;;7.10;4.25;;;;;;;;;;5045785;28;20049;-91
2023/06/05 07:18:41;;;;;;;6.80;3.78;;;;;;;;;;5048551;28;20064;-90
2023/06/05 07:21:16;;;;;;;6.88;3.88;;;;;;;;;;5045873;28;20097;-90
2023/06/05 07:23:47;;;;;;;6.07;3.55;;;;;;;;;;5023624;28;20048;-91
2023/06/05 07:26:15;;;;;;;9.25;3.90;;;;;;;;;;5037041;28;20423;-89
2023/06/05 07:29:05;;;;;;;6.85;3.47;;;;;;;;;;5045959;28;20392;-91
2023/06/05 07:31:31;;;;;;;5.82;3.50;;;;;;;;;;5032178;28;20057;-91
2023/06/05 07:34:12;;;;;;;7.75;4.00;;;;;;;;;;5029903;28;20415;-90
2023/06/05 07:37:01;;;;;;;;;;;;;;;;;;;;;
2023/06/05 07:39:52;;;;;;;7.40;3.97;;;;;;;;;;5039045;28;20049;-92
2023/06/05 07:42:16;;;;;;;8.27;3.78;;;;;;;;;;5040269;28;20064;-91
2023/06/05 07:44:52;;;;;;;8.13;4.07;;;;;;;;;;5022998;28;20052;-91
2023/06/05 07:47:21;;;;;;;7.88;4.07;;;;;;;;;;5026649;28;20056;-93
2023/06/05 07:50:00;;;;;;;6.63;3.80;;;;;;;;;;5028667;28;20045;-90
2023/06/05 07:52:33;;;;;;;8.23;4.40;;;;;;;;;;5036355;28;20105;-89
2023/06/05 07:55:12;;;;;;;6.72;4.15;;;;;;;;;;5028926;28;20054;-89
2023/06/05 07:57:39;;;;;;;6.43;4.22;;;;;;;;;;5025834;28;20056;-88
2023/06/05 08:00:09;;;;;;;7.57;3.75;;;;;;;;;;5009734;28;20064;-89
2023/06/05 08:02:43;;;;;;;6.43;4.05;;;;;;;;;;5016042;28;20075;-89
2023/06/05 08:05:10;;;;;;;7.32;3.92;;;;;;;;;;5041586;28;20049;-87
2023/06/05 08:07:39;;;;;;;7.32;4.10;;;;;;;;;;5038360;28;20081;-87
2023/06/05 08:10:06;;;;;;;8.00;4.35;;;;;;;;;;5021743;28;20049;-89
2023/06/05 08:12:47;;;;;;;7.65;3.90;;;;;;;;;;5032799;28;20045;-88
2023/06/05 08:15:14;;;;;;;6.90;4.22;;;;;;;;;;5043594;28;20068;-88
2023/06/05 08:17:40;;;;;;;6.38;3.80;;;;;;;;;;5032210;28;20091;-87
2023/06/05 08:20:07;;;;;;;6.50;4.05;;;;;;;;;;5027543;28;20042;-88
2023/06/05 08:22:34;;;;;;;7.35;4.25;;;;;;;;;;5042646;28;20183;-88
2023/06/05 08:25:00;;;;;;;9.07;4.63;;;;;;;;;;5044236;28;20203;-87
2023/06/05 08:27:26;;;;;;;7.53;4.60;;;;;;;;;;5045179;28;20080;-89
2023/06/05 08:29:52;;;;;;;7.90;4.25;;;;;;;;;;5019170;28;20050;-88
2023/06/05 08:32:20;;;;;;;6.85;4.22;;;;;;;;;;5036798;28;20099;-87
2023/06/05 08:34:47;;;;;;;9.30;4.18;;;;;;;;;;5042518;28;20059;-87
2023/06/05 08:37:13;;;;;;;8.57;4.18;;;;;;;;;;5014866;28;20053;-88
2023/06/05 08:39:39;;;;;;;7.70;3.97;;;;;;;;;;5009651;28;20129;-86
2023/06/05 08:42:05;;;;;;;7.07;4.22;;;;;;;;;;5049745;28;20045;-87
2023/06/05 08:44:32;;;;;;;6.85;3.88;;;;;;;;;;5010790;28;20044;-86
2023/06/05 08:47:01;;;;;;;9.05;3.70;;;;;;;;;;5045237;28;20496;-88
2023/06/05 08:49:36;;;;;;;8.38;4.00;;;;;;;;;;5010951;28;20075;-86
2023/06/05 08:52:03;;;;;;;8.15;3.70;;;;;;;;;;5030734;28;20052;-89
2023/06/05 08:54:36;;;;;;;7.13;3.20;;;;;;;;;;5047975;28;20049;-88
2023/06/05 08:57:10;;;;;;;5.75;3.47;;;;;;;;;;5045638;28;20042;-88
2023/06/05 08:59:37;;;;;;;8.05;3.60;;;;;;;;;;5028526;28;20103;-88
2023/06/05 09:02:05;;;;;;;6.63;3.22;;;;;;;;;;5028802;28;20108;-87
2023/06/05 09:04:31;;;;;;;7.50;3.78;;;;;;;;;;5042775;28;20109;-88
2023/06/05 09:06:58;;;;;;;6.93;3.50;;;;;;;;;;5033306;28;20182;-89
2023/06/05 09:09:25;;;;;;;7.47;3.50;;;;;;;;;;5028132;28;20046;-88
2023/06/05 09:12:03;;;;;;;8.57;3.40;;;;;;;;;;5042582;28;20124;-87
2023/06/05 09:14:31;;;;;;;7.60;3.60;;;;;;;;;;5014078;28;20069;-87
2023/06/05 09:16:57;;;;;;;6.13;3.60;;;;;;;;;;5025374;28;20037;-88
2023/06/05 09:19:27;;;;;;;9.30;3.80;;;;;;;;;;5031544;28;20050;-89
2023/06/05 09:21:56;;;;;;;6.47;3.35;;;;;;;;;;5030255;28;20037;-87
2023/06/05 09:24:25;;;;;;;9.00;3.88;;;;;;;;;;5040588;28;20474;-88
2023/06/05 09:26:56;;;;;;;7.32;3.72;;;;;;;;;;5044639;28;20041;-87
2023/06/05 09:29:29;;;;;;;6.22;3.63;;;;;;;;;;5039237;28;20376;-87
2023/06/05 09:31:59;;;;;;;7.45;3.40;;;;;;;;;;5012950;28;20053;-86
2023/06/05 09:34:26;;;;;;;7.97;4.03;;;;;;;;;;5045462;28;20064;-86
2023/06/05 09:36:54;;;;;;;6.93;3.30;;;;;;;;;;5046687;28;20060;-86
2023/06/05 09:39:21;;;;;;;7.63;3.70;;;;;;;;;;5045742;28;20075;-86
2023/06/05 09:41:48;;;;;;;7.18;3.45;;;;;;;;;;5045908;28;20045;-86
2023/06/05 09:44:15;;;;;;;8.52;4.00;;;;;;;;;;5009685;28;20046;-85
2023/06/05 09:46:55;;;;;;;7.97;3.50;;;;;;;;;;5032469;28;20083;-85
2023/06/05 09:49:22;;;;;;;7.18;3.40;;;;;;;;;;5047555;28;20365;-86
2023/06/05 09:51:48;;;;;;;8.95;3.10;;;;;;;;;;5045809;28;20403;-86
2023/06/05 09:54:15;;;;;;;6.85;3.33;;;;;;;;;;5045331;28;20037;-86
2023/06/05 09:56:41;;;;;;;7.30;3.05;;;;;;;;;;5047430;28;20099;-86
2023/06/05 09:59:11;;;;;;;6.68;3.35;;;;;;;;;;5039747;28;20034;-87
2023/06/05 10:01:43;;;;;;;8.27;3.80;;;;;;;;;;5036344;28;20101;-86
2023/06/05 10:04:11;;;;;;;7.30;3.53;;;;;;;;;;5038128;28;20558;-86
2023/06/05 10:06:37;;;;;;;7.00;3.75;;;;;;;;;;5043359;28;20117;-86
2023/06/05 10:09:04;;;;;;;6.22;3.60;;;;;;;;;;5045906;28;20399;-87
2023/06/05 10:11:30;;;;;;;10.13;3.70;;;;;;;;;;5022655;28;20052;-87
2023/06/05 10:13:59;;;;;;;6.10;3.50;;;;;;;;;;5043948;28;20049;-86
2023/06/05 10:16:27;;;;;;;7.07;3.75;;;;;;;;;;5043625;28;20037;-87
2023/06/05 10:18:55;;;;;;;8.52;3.60;;;;;;;;;;5023924;28;20045;-86
2023/06/05 10:21:21;;;;;;;8.52;3.10;;;;;;;;;;5036949;28;20064;-88
2023/06/05 10:24:04;;;;;;;6.50;2.95;;;;;;;;;;5034424;28;20018;-86
2023/06/05 10:26:38;;;;;;;7.82;3.60;;;;;;;;;;5044143;28;20140;-87
2023/06/05 10:29:23;;;;;;;6.72;3.28;;;;;;;;;;5044973;28;20037;-87
2023/06/05 10:31:53;;;;;;;5.13;3.08;;;;;;;;;;5031874;28;20124;-87
2023/06/05 10:34:28;;;;;;;6.40;2.92;;;;;;;;;;5041031;28;20060;-87
2023/06/05 10:37:00;;;;;;;6.63;3.67;;;;;;;;;;5026659;28;20052;-88
2023/06/05 10:39:29;;;;;;;8.20;3.90;;;;;;;;;;5045282;28;20076;-88
2023/06/05 10:41:55;;;;;;;9.20;3.53;;;;;;;;;;5037165;28;20053;-87
2023/06/05 10:44:39;;;;;;;5.95;3.15;;;;;;;;;;5042407;28;20423;-87
2023/06/05 10:47:25;;;;;;;5.13;2.95;;;;;;;;;;5048399;28;20080;-87
2023/06/05 10:50:10;;;;;;;7.97;3.28;;;;;;;;;;5018934;28;20128;-87
2023/06/05 10:52:36;;;;;;;6.75;2.80;;;;;;;;;;5025201;28;20041;-87
2023/06/05 10:55:07;;;;;;;7.22;3.13;;;;;;;;;;5034475;28;20111;-88
2023/06/05 10:57:52;;;;;;;7.18;2.85;;;;;;;;;;5021234;28;20045;-87
2023/06/05 11:00:18;;;;;;;6.60;2.80;;;;;;;;;;5018154;28;20041;-88
2023/06/05 11:02:47;;;;;;;9.15;3.50;;;;;;;;;;5013580;28;20045;-88
2023/06/05 11:05:14;;;;;;;7.18;4.03;;;;;;;;;;5028639;28;20037;-88
2023/06/05 11:07:40;;;;;;;7.13;2.88;;;;;;;;;;5049010;28;20025;-88
2023/06/05 11:10:07;;;;;;;5.65;2.60;;;;;;;;;;5049716;28;20052;-88
2023/06/05 11:12:36;;;;;;;6.25;2.88;;;;;;;;;;5002045;28;20017;-87
2023/06/05 11:15:06;;;;;;;5.55;2.72;;;;;;;;;;5020094;28;20041;-88
2023/06/05 11:17:33;;;;;;;6.85;3.15;;;;;;;;;;5010979;28;20060;-88
2023/06/05 11:20:00;;;;;;;8.93;2.95;;;;;;;;;;5045060;28;20049;-89
2023/06/05 11:22:27;;;;;;;6.63;2.83;;;;;;;;;;5045607;28;20481;-88
2023/06/05 11:25:11;;;;;;;6.80;2.90;;;;;;;;;;5042989;28;20041;-88
2023/06/05 11:27:45;;;;;;;6.80;2.75;;;;;;;;;;5040942;28;20123;-88
2023/06/05 11:30:18;;;;;;;6.72;3.05;;;;;;;;;;5044583;28;20500;-87
2023/06/05 11:32:44;;;;;;;7.78;3.20;;;;;;;;;;5044420;28;20059;-86
2023/06/05 11:35:11;;;;;;;7.07;3.20;;;;;;;;;;5039416;28;20060;-88
2023/06/05 11:37:39;;;;;;;6.82;3.20;;;;;;;;;;5027589;28;20130;-89
2023/06/05 11:40:09;;;;;;;9.60;3.00;;;;;;;;;;5026442;28;20068;-89
2023/06/05 11:42:36;;;;;;;7.53;3.50;;;;;;;;;;5041501;28;20046;-88
2023/06/05 11:45:02;;;;;;;8.65;3.40;;;;;;;;;;5043577;28;20535;-88
2023/06/05 11:47:29;;;;;;;10.25;3.10;;;;;;;;;;5032235;28;20037;-89
2023/06/05 11:50:12;;;;;;;5.70;3.05;;;;;;;;;;5037773;28;20045;-88
2023/06/05 11:52:39;;;;;;;6.95;3.42;;;;;;;;;;5045823;28;20046;-89
2023/06/05 11:55:16;;;;;;;6.90;3.65;;;;;;;;;;5043950;28;20088;-89
2023/06/05 11:57:46;;;;;;;7.15;3.30;;;;;;;;;;5023318;28;20091;-88
2023/06/05 12:00:13;;;;;;;6.50;2.70;;;;;;;;;;5010201;28;20053;-88
2023/06/05 12:02:42;;;;;;;9.30;3.90;;;;;;;;;;5039017;28;20511;-86
2023/06/05 12:05:09;;;;;;;6.50;3.40;;;;;;;;;;5043992;28;20068;-86
2023/06/05 12:07:39;;;;;;;8.57;3.03;;;;;;;;;;5021544;28;20038;-87
2023/06/05 12:10:06;;;;;;;6.88;3.00;;;;;;;;;;5010472;28;20563;-86
2023/06/05 12:12:33;;;;;;;7.53;2.97;;;;;;;;;;5043386;28;20049;-86
2023/06/05 12:15:14;;;;;;;7.40;3.10;;;;;;;;;;5044882;28;20049;-86
2023/06/05 12:17:40;;;;;;;5.18;2.25;;;;;;;;;;5044215;28;20101;-85
2023/06/05 12:20:08;;;;;;;6.13;2.88;;;;;;;;;;5029202;28;20515;-86
2023/06/05 12:22:34;;;;;;;4.60;2.55;;;;;;;;;;5045602;28;20052;-88
2023/06/05 12:25:20;;;;;;;7.70;2.78;;;;;;;;;;5027266;28;20051;-87
2023/06/05 12:27:47;;;;;;;7.03;3.15;;;;;;;;;;5045703;28;20048;-88
2023/06/05 12:30:14;;;;;;;8.10;3.03;;;;;;;;;;5034933;28;20041;-86
2023/06/05 12:32:40;;;;;;;7.57;3.30;;;;;;;;;;5044967;28;20053;-88
2023/06/05 12:35:18;;;;;;;7.90;2.58;;;;;;;;;;5014726;28;20128;-88
2023/06/05 12:37:45;;;;;;;6.95;2.92;;;;;;;;;;5039830;28;20133;-86
2023/06/05 12:40:11;;;;;;;5.97;3.05;;;;;;;;;;5019413;28;20053;-88
2023/06/05 12:42:43;;;;;;;6.13;2.85;;;;;;;;;;5037692;28;20045;-87
2023/06/05 12:45:09;;;;;;;6.03;2.92;;;;;;;;;;5000327;28;20042;-87
2023/06/05 12:47:36;;;;;;;6.38;2.80;;;;;;;;;;5018561;28;20057;-88
2023/06/05 12:50:03;;;;;;;7.03;3.03;;;;;;;;;;5043052;28;20091;-87
2023/06/05 12:52:29;;;;;;;6.25;3.38;;;;;;;;;;5010451;28;20053;-87
2023/06/05 12:54:56;;;;;;;5.85;2.70;;;;;;;;;;5025882;28;20061;-85
2023/06/05 12:57:26;;;;;;;6.53;2.85;;;;;;;;;;5047035;28;20041;-86
2023/06/05 12:59:55;;;;;;;6.65;2.90;;;;;;;;;;5044118;28;20116;-85
2023/06/05 13:02:21;;;;;;;6.60;2.92;;;;;;;;;;5044700;28;20042;-86
2023/06/05 13:04:48;;;;;;;9.48;2.63;;;;;;;;;;5020102;28;20535;-86
2023/06/05 13:07:16;;;;;;;9.88;2.97;;;;;;;;;;5034746;28;20064;-87
2023/06/05 13:09:42;;;;;;;7.43;3.58;;;;;;;;;;5039588;28;20101;-86
2023/06/05 13:12:08;;;;;;;6.18;3.17;;;;;;;;;;5025951;28;20048;-85
2023/06/05 13:14:35;;;;;;;6.93;3.33;;;;;;;;;;5002649;28;20046;-85
2023/06/05 13:17:01;;;;;;;5.28;3.17;;;;;;;;;;5034250;28;20050;-84
2023/06/05 13:19:27;;;;;;;6.45;2.85;;;;;;;;;;5023599;28;20053;-85
2023/06/05 13:21:53;;;;;;;9.20;3.10;;;;;;;;;;5025556;28;20098;-86
2023/06/05 13:24:20;;;;;;;6.65;2.97;;;;;;;;;;5043397;28;20140;-86
2023/06/05 13:26:46;;;;;;;9.25;3.35;;;;;;;;;;5026162;28;20046;-86
2023/06/05 13:29:13;;;;;;;6.65;3.33;;;;;;;;;;5024666;28;20100;-86
2023/06/05 13:31:39;;;;;;;7.15;2.95;;;;;;;;;;5034455;28;20050;-86
2023/06/05 13:34:05;;;;;;;6.55;2.95;;;;;;;;;;5031975;28;20484;-87
2023/06/05 13:36:32;;;;;;;6.55;3.40;;;;;;;;;;5035957;28;20046;-87
2023/06/05 13:38:58;;;;;;;6.63;3.00;;;;;;;;;;5040525;28;20128;-86
2023/06/05 13:41:25;;;;;;;7.07;3.33;;;;;;;;;;5046136;28;20116;-85
2023/06/05 13:43:51;;;;;;;7.65;3.70;;;;;;;;;;5029506;28;20110;-86
2023/06/05 13:46:17;;;;;;;8.45;3.17;;;;;;;;;;5059531;28;20050;-85
2023/06/05 13:48:43;;;;;;;6.90;3.60;;;;;;;;;;5050516;28;20049;-85
2023/06/05 13:51:09;;;;;;;9.32;3.35;;;;;;;;;;5041132;28;20037;-86
2023/06/05 13:53:35;;;;;;;9.05;3.72;;;;;;;;;;5040612;28;20159;-86
2023/06/05 13:56:02;;;;;;;7.72;3.50;;;;;;;;;;5046939;28;20101;-85
2023/06/05 13:58:28;;;;;;;9.20;3.72;;;;;;;;;;5038244;28;20038;-86
2023/06/05 14:00:55;;;;;;;9.13;3.88;;;;;;;;;;5034086;28;20109;-84
2023/06/05 14:03:21;;;;;;;9.73;3.95;;;;;;;;;;5037560;28;20072;-84
2023/06/05 14:05:47;;;;;;;8.00;4.00;;;;;;;;;;5034968;28;20461;-86
2023/06/05 14:08:17;;;;;;;8.90;3.70;;;;;;;;;;5031805;28;20042;-86
2023/06/05 14:10:43;;;;;;;7.72;3.88;;;;;;;;;;5034585;28;20123;-88
2023/06/05 14:13:09;;;;;;;11.32;4.15;;;;;;;;;;5039220;28;20049;-85
2023/06/05 14:15:35;;;;;;;8.70;4.38;;;;;;;;;;5042200;28;20038;-86
2023/06/05 14:18:03;;;;;;;7.32;4.20;;;;;;;;;;5043197;28;20125;-87
2023/06/05 14:20:29;;;;;;;11.05;3.95;;;;;;;;;;5044538;28;20107;-86
2023/06/05 14:22:59;;;;;;;7.68;3.78;;;;;;;;;;5026134;28;20141;-87
2023/06/05 14:25:26;;;;;;;10.73;4.35;;;;;;;;;;5025951;28;20042;-85
2023/06/05 14:27:56;;;;;;;9.23;4.15;;;;;;;;;;5027063;28;20038;-84
2023/06/05 14:30:28;;;;;;;7.45;3.72;;;;;;;;;;5042561;28;20041;-84
2023/06/05 14:32:55;;;;;;;7.55;4.10;;;;;;;;;;5044146;28;20064;-85
2023/06/05 14:35:22;;;;;;;8.40;4.35;;;;;;;;;;5042620;28;20069;-87
2023/06/05 14:37:48;;;;;;;7.90;4.57;;;;;;;;;;5041096;28;20058;-87
2023/06/05 14:40:14;;;;;;;7.45;4.80;;;;;;;;;;5036278;28;20048;-87
2023/06/05 14:42:41;;;;;;;8.15;5.00;;;;;;;;;;5039047;28;20046;-86
2023/06/05 14:45:10;;;;;;;7.68;4.35;;;;;;;;;;5047354;28;20043;-86
2023/06/05 14:47:36;;;;;;;8.23;4.28;;;;;;;;;;5044774;28;20061;-86
2023/06/05 14:50:02;;;;;;;7.72;4.55;;;;;;;;;;5043787;28;20077;-87
2023/06/05 14:52:29;;;;;;;8.73;4.65;;;;;;;;;;5042413;28;20034;-87
2023/06/05 14:54:55;;;;;;;10.38;4.53;;;;;;;;;;5025517;28;20049;-86
2023/06/05 14:57:21;;;;;;;9.73;5.07;;;;;;;;;;5030605;28;20046;-89
2023/06/05 14:59:47;;;;;;;7.75;4.70;;;;;;;;;;5040131;28;20037;-87